Time;durP1;ratioP1;P1;durP2;ratioP2;P2;SDS_P1;SDS_P2;PMS_P1;PMS_P2;Temp;Humidity;BMP_temperature;BMP_pressure;BME280_temperature;BME280_humidity;BME280_pressure;Samples;Min_cycle;Max_cycle;Signal;HPM_P1;HPM_P2
2023/03/12 00:00:47;;;;;;;0.20;0.20;;;3.40;99.90;;;;;;5100438;28;20332;-75
2023/03/12 00:03:13;;;;;;;0.10;0.10;;;0.20;99.90;;;;;;5083188;28;20111;-76
2023/03/12 00:05:41;;;;;;;0.10;0.10;;;3.30;99.90;;;;;;5100918;28;20105;-76
2023/03/12 00:08:07;;;;;;;0.10;0.10;;;;;;;;;;5100761;28;20414;-76
2023/03/12 00:10:33;;;;;;;0.10;0.10;;;3.40;99.90;;;;;;5102890;28;20081;-76
2023/03/12 00:13:00;;;;;;;0.08;0.08;;;3.40;99.90;;;;;;5102007;28;20078;-76
2023/03/12 00:15:26;;;;;;;0.10;0.10;;;;;;;;;;5098520;28;20227;-76
2023/03/12 00:17:52;;;;;;;0.03;0.03;;;3.50;99.90;;;;;;5100776;28;20024;-77
2023/03/12 00:20:19;;;;;;;0.00;0.00;;;3.60;99.90;;;;;;5100843;28;20023;-76
2023/03/12 00:22:45;;;;;;;0.10;0.10;;;;;;;;;;5100848;28;20490;-76
2023/03/12 00:25:14;;;;;;;0.00;0.00;;;3.70;99.90;;;;;;5103194;28;20027;-77
2023/03/12 00:27:42;;;;;;;0.10;0.10;;;3.70;99.90;;;;;;5101884;28;20116;-76
2023/03/12 00:30:09;;;;;;;0.00;0.00;;;3.70;99.90;;;;;;5101971;28;20023;-76
2023/03/12 00:32:36;;;;;;;0.00;0.00;;;4.20;99.90;;;;;;5102515;28;20022;-77
2023/03/12 00:35:03;;;;;;;1.20;1.20;;;3.60;99.90;;;;;;5102444;28;20683;-76
2023/03/12 00:37:29;;;;;;;0.00;0.00;;;;;;;;;;5101531;28;20196;-76
2023/03/12 00:39:55;;;;;;;0.10;0.10;;;3.70;99.90;;;;;;5101202;28;20020;-76
2023/03/12 00:42:20;;;;;;;0.20;0.20;;;3.70;99.90;;;;;;5102003;28;20039;-76
2023/03/12 00:44:46;;;;;;;0.10;0.10;;;3.70;99.90;;;;;;5102486;28;20019;-75
2023/03/12 00:47:12;;;;;;;0.10;0.10;;;3.70;99.90;;;;;;5102135;28;20046;-76
2023/03/12 00:49:38;;;;;;;30.25;28.05;;;3.70;99.90;;;;;;5101899;28;20035;-76
2023/03/12 00:52:05;;;;;;;0.32;0.32;;;3.70;99.90;;;;;;5101988;28;20039;-77
2023/03/12 00:54:31;;;;;;;0.08;0.08;;;3.70;99.90;;;;;;5102449;28;20229;-77
2023/03/12 00:56:56;;;;;;;0.00;0.00;;;3.70;99.90;;;;;;5101338;28;20027;-76
2023/03/12 00:59:22;;;;;;;0.10;0.10;;;3.60;99.90;;;;;;5103579;28;20027;-75
2023/03/12 01:01:48;;;;;;;0.00;0.00;;;3.60;99.90;;;;;;5101601;28;20057;-76
2023/03/12 01:04:14;;;;;;;0.10;0.10;;;3.60;99.90;;;;;;5101797;28;20034;-76
2023/03/12 01:06:40;;;;;;;6.78;6.45;;;3.60;99.90;;;;;;5103283;28;20336;-75
2023/03/12 01:09:08;;;;;;;6.80;6.32;;;3.70;99.90;;;;;;5105171;28;20232;-76
2023/03/12 01:11:36;;;;;;;0.05;0.05;;;3.60;99.90;;;;;;5105706;28;20110;-76
2023/03/12 01:14:07;;;;;;;0.03;0.03;;;3.70;99.90;;;;;;5104973;28;20036;-76
2023/03/12 01:16:33;;;;;;;0.10;0.10;;;3.70;99.90;;;;;;5104947;28;20027;-76
2023/03/12 01:19:01;;;;;;;0.50;0.50;;;3.70;99.90;;;;;;5105876;28;20028;-76
2023/03/12 01:21:29;;;;;;;0.10;0.10;;;3.70;99.90;;;;;;5087835;28;20031;-76
2023/03/12 01:23:56;;;;;;;1.30;1.20;;;3.80;99.90;;;;;;5106125;28;20020;-76
2023/03/12 01:26:22;;;;;;;17.00;15.90;;;3.80;99.90;;;;;;5107373;28;20039;-76
2023/03/12 01:28:48;;;;;;;0.10;0.10;;;3.80;99.90;;;;;;5107583;28;20499;-76
2023/03/12 01:31:17;;;;;;;0.10;0.10;;;3.80;99.90;;;;;;5108012;28;20066;-75
2023/03/12 01:33:44;;;;;;;0.57;0.57;;;3.80;99.90;;;;;;5107621;28;20016;-76
2023/03/12 01:36:17;;;;;;;0.10;0.10;;;3.80;99.90;;;;;;5111504;28;20245;-76
2023/03/12 01:38:42;;;;;;;0.10;0.10;;;3.80;99.90;;;;;;5113420;28;20023;-76
2023/03/12 01:41:08;;;;;;;0.10;0.10;;;3.70;99.90;;;;;;5113627;28;20366;-77
2023/03/12 01:43:37;;;;;;;0.13;0.13;;;3.70;99.90;;;;;;5111185;28;20034;-76
2023/03/12 01:46:25;;;;;;;0.57;0.57;;;3.70;99.90;;;;;;5105624;28;20031;-77
2023/03/12 01:49:26;;;;;;;0.10;0.10;;;3.70;99.90;;;;;;5105631;28;20099;-76
2023/03/12 01:52:24;;;;;;;0.13;0.13;;;3.80;99.90;;;;;;5022105;28;20029;-76
2023/03/12 01:54:50;;;;;;;0.00;0.00;;;;;;;;;;5018219;28;20483;-76
2023/03/12 01:57:24;;;;;;;0.55;0.55;;;3.70;99.90;;;;;;5022787;28;20056;-76
2023/03/12 01:59:55;;;;;;;1.23;1.23;;;3.80;99.90;;;;;;5022039;28;20108;-76
2023/03/12 02:02:25;;;;;;;0.10;0.10;;;;;;;;;;5006733;28;20550;-76
2023/03/12 02:05:16;;;;;;;0.10;0.10;;;3.60;99.90;;;;;;5022876;28;20075;-76
2023/03/12 02:07:42;;;;;;;0.57;0.57;;;3.50;99.90;;;;;;4947064;29;20047;-76
2023/03/12 02:10:09;;;;;;;0.00;0.00;;;3.60;99.90;;;;;;4949235;29;20094;-76
2023/03/12 02:12:35;;;;;;;2.42;2.35;;;3.60;99.90;;;;;;4949945;28;20039;-76
2023/03/12 02:15:01;;;;;;;0.00;0.00;;;3.60;99.90;;;;;;4947607;29;20592;-75
2023/03/12 02:17:48;;;;;;;1.20;1.10;;;3.60;99.90;;;;;;4942873;28;20183;-75
2023/03/12 02:20:22;;;;;;;0.10;0.10;;;3.10;99.90;;;;;;4926975;29;20035;-76
2023/03/12 02:23:01;;;;;;;0.32;0.32;;;3.60;99.90;;;;;;4941819;28;20348;-76
2023/03/12 02:25:40;;;;;;;9.48;9.02;;;3.60;99.90;;;;;;4942665;29;20039;-75
2023/03/12 02:28:26;;;;;;;0.57;0.57;;;3.60;99.90;;;;;;4971162;28;20322;-76
2023/03/12 02:30:58;;;;;;;0.00;0.00;;;3.60;99.90;;;;;;4978997;28;20030;-76
2023/03/12 02:33:24;;;;;;;0.20;0.20;;;3.60;99.90;;;;;;4979854;28;20034;-76
2023/03/12 02:35:59;;;;;;;0.10;0.10;;;3.60;99.90;;;;;;4978743;28;20061;-78
2023/03/12 02:38:50;;;;;;;0.00;0.00;;;3.50;99.90;;;;;;4978055;28;20042;-78
2023/03/12 02:41:15;;;;;;;0.10;0.10;;;3.50;99.90;;;;;;4979209;28;20584;-75
2023/03/12 02:43:46;;;;;;;0.10;0.10;;;3.40;99.90;;;;;;4981124;28;20294;-76
2023/03/12 02:46:12;;;;;;;0.20;0.20;;;3.20;99.90;;;;;;5083229;28;20126;-76
2023/03/12 02:48:38;;;;;;;0.00;0.00;;;3.20;99.90;;;;;;5101617;28;20252;-76
2023/03/12 02:51:04;;;;;;;0.03;0.03;;;3.20;99.90;;;;;;5102353;28;20119;-75
2023/03/12 02:53:30;;;;;;;0.10;0.10;;;3.10;99.90;;;;;;5101454;28;20054;-75
2023/03/12 02:55:56;;;;;;;0.10;0.10;;;3.20;99.90;;;;;;5102653;28;20047;-76
2023/03/12 02:58:21;;;;;;;0.10;0.10;;;3.10;99.90;;;;;;5103096;28;20019;-76
2023/03/12 03:00:47;;;;;;;0.10;0.10;;;3.00;99.90;;;;;;5101890;28;20807;-76
2023/03/12 03:03:14;;;;;;;0.03;0.03;;;2.90;99.90;;;;;;5101334;28;20501;-75
2023/03/12 03:05:40;;;;;;;0.10;0.10;;;3.00;99.90;;;;;;5101571;28;20043;-76
2023/03/12 03:08:06;;;;;;;0.45;0.45;;;3.00;99.90;;;;;;5102031;28;20035;-76
2023/03/12 03:10:31;;;;;;;0.10;0.10;;;3.10;99.90;;;;;;5102811;28;20522;-76
2023/03/12 03:12:57;;;;;;;0.10;0.10;;;3.00;99.90;;;;;;5100287;28;20111;-75
2023/03/12 03:15:23;;;;;;;0.10;0.10;;;3.00;99.90;;;;;;5102160;28;20620;-76
2023/03/12 03:17:49;;;;;;;1.63;1.55;;;3.00;99.90;;;;;;5101155;28;20478;-76
2023/03/12 03:20:14;;;;;;;0.10;0.10;;;3.00;99.90;;;;;;5101994;28;20032;-77
2023/03/12 03:22:40;;;;;;;0.10;0.10;;;3.10;99.90;;;;;;5102559;28;20125;-76
2023/03/12 03:25:08;;;;;;;0.10;0.10;;;3.00;99.90;;;;;;5103053;28;20096;-76
2023/03/12 03:27:34;;;;;;;0.10;0.10;;;3.00;99.90;;;;;;5102296;28;20032;-76
2023/03/12 03:30:00;;;;;;;0.10;0.10;;;3.00;99.90;;;;;;5101654;28;20020;-75
2023/03/12 03:32:26;;;;;;;0.10;0.10;;;3.00;99.90;;;;;;5102137;28;20478;-76
2023/03/12 03:34:52;;;;;;;0.20;0.20;;;3.00;99.90;;;;;;5099349;28;20035;-76
2023/03/12 03:37:18;;;;;;;0.10;0.10;;;3.00;99.90;;;;;;5101534;28;20157;-76
2023/03/12 03:39:45;;;;;;;0.00;0.00;;;3.10;99.90;;;;;;5101974;28;20040;-75
2023/03/12 03:42:11;;;;;;;0.10;0.10;;;3.00;99.90;;;;;;5101590;28;20030;-75
2023/03/12 03:44:36;;;;;;;0.10;0.10;;;3.00;99.90;;;;;;5101521;28;20399;-76
2023/03/12 03:47:02;;;;;;;0.03;0.03;;;3.00;99.90;;;;;;5101054;28;20035;-75
2023/03/12 03:49:28;;;;;;;0.00;0.00;;;2.90;99.90;;;;;;5102085;28;20023;-76
2023/03/12 03:51:54;;;;;;;0.10;0.10;;;3.00;99.90;;;;;;5101324;28;20661;-76
2023/03/12 03:54:21;;;;;;;0.10;0.10;;;3.00;99.90;;;;;;5101665;28;20478;-76
2023/03/12 03:56:47;;;;;;;0.00;0.00;;;3.00;99.90;;;;;;5101553;28;20091;-76
2023/03/12 03:59:14;;;;;;;0.10;0.10;;;3.00;99.90;;;;;;5101828;28;20102;-76
2023/03/12 04:01:39;;;;;;;0.08;0.08;;;3.00;99.90;;;;;;5101069;28;20031;-76
2023/03/12 04:04:05;;;;;;;0.10;0.10;;;3.00;99.90;;;;;;5099077;28;20040;-76
2023/03/12 04:06:31;;;;;;;0.10;0.10;;;2.90;99.90;;;;;;5100450;28;20048;-76
2023/03/12 04:08:57;;;;;;;0.10;0.10;;;2.80;99.90;;;;;;5100431;28;20015;-76
2023/03/12 04:11:23;;;;;;;0.10;0.10;;;2.80;99.90;;;;;;5102276;28;20022;-76
2023/03/12 04:13:50;;;;;;;0.10;0.10;;;2.80;99.90;;;;;;5102194;28;20027;-76
2023/03/12 04:16:16;;;;;;;0.10;0.10;;;2.70;99.90;;;;;;5100771;28;20327;-75
2023/03/12 04:18:47;;;;;;;0.10;0.10;;;2.80;99.90;;;;;;5104135;28;20020;-76
2023/03/12 04:21:14;;;;;;;0.10;0.10;;;2.80;99.90;;;;;;5103460;28;20020;-76
2023/03/12 04:23:40;;;;;;;0.10;0.10;;;2.80;99.90;;;;;;5102932;28;20032;-76
2023/03/12 04:26:07;;;;;;;0.00;0.00;;;2.70;99.90;;;;;;5085537;28;20168;-76
2023/03/12 04:28:35;;;;;;;0.10;0.10;;;2.50;99.90;;;;;;5103843;28;20024;-76
2023/03/12 04:31:05;;;;;;;0.00;0.00;;;2.60;99.90;;;;;;5103891;28;20233;-76
2023/03/12 04:33:36;;;;;;;0.38;0.38;;;2.50;99.90;;;;;;5103063;28;20083;-76
2023/03/12 04:36:02;;;;;;;0.10;0.10;;;2.50;99.90;;;;;;5103243;28;20049;-76
2023/03/12 04:38:29;;;;;;;0.10;0.10;;;2.50;99.90;;;;;;5104462;28;20016;-76
2023/03/12 04:41:06;;;;;;;0.10;0.10;;;2.50;99.90;;;;;;5106074;28;20023;-76
2023/03/12 04:43:33;;;;;;;0.10;0.10;;;2.50;99.90;;;;;;5109604;28;20019;-76
2023/03/12 04:46:00;;;;;;;0.20;0.20;;;2.50;99.90;;;;;;5111881;28;20039;-76
2023/03/12 04:48:26;;;;;;;0.15;0.15;;;2.50;99.90;;;;;;5109395;28;20101;-76
2023/03/12 04:50:52;;;;;;;0.10;0.10;;;2.50;99.90;;;;;;5106852;28;20032;-76
2023/03/12 04:53:18;;;;;;;0.10;0.10;;;2.50;99.90;;;;;;5108323;28;20320;-76
2023/03/12 04:55:44;;;;;;;0.10;0.10;;;2.50;99.90;;;;;;5090225;28;20468;-76
2023/03/12 04:58:10;;;;;;;0.10;0.10;;;2.50;99.90;;;;;;5108249;28;20032;-76
2023/03/12 05:00:37;;;;;;;0.10;0.10;;;2.50;99.90;;;;;;5106086;28;20509;-75
2023/03/12 05:03:03;;;;;;;0.10;0.10;;;2.10;99.90;;;;;;5107730;28;20057;-76
2023/03/12 05:05:29;;;;;;;0.10;0.10;;;2.50;99.90;;;;;;5111115;28;20256;-76
2023/03/12 05:07:55;;;;;;;0.10;0.10;;;2.60;99.90;;;;;;5108375;28;20023;-76
2023/03/12 05:10:20;;;;;;;0.10;0.10;;;2.60;99.90;;;;;;5109071;28;20042;-76
2023/03/12 05:12:46;;;;;;;5.40;5.20;;;2.60;99.90;;;;;;5108100;28;20106;-76
2023/03/12 05:15:12;;;;;;;0.10;0.10;;;2.60;99.90;;;;;;5108319;28;20024;-75
2023/03/12 05:17:38;;;;;;;0.10;0.10;;;2.60;99.90;;;;;;5109591;28;20023;-76
2023/03/12 05:20:05;;;;;;;0.10;0.10;;;2.50;99.90;;;;;;5091768;28;20555;-75
2023/03/12 05:22:31;;;;;;;21.35;20.27;;;2.50;99.90;;;;;;5111827;27;20083;-76
2023/03/12 05:24:56;;;;;;;0.10;0.10;;;2.50;99.90;;;;;;5109299;28;20131;-75
2023/03/12 05:27:24;;;;;;;0.10;0.10;;;2.50;99.90;;;;;;5111874;28;20190;-75
2023/03/12 05:29:51;;;;;;;0.15;0.15;;;2.50;99.90;;;;;;5094912;28;20043;-76
2023/03/12 05:32:20;;;;;;;0.10;0.10;;;2.40;99.90;;;;;;5097506;28;20130;-76
2023/03/12 05:34:46;;;;;;;0.30;0.30;;;2.40;99.90;;;;;;5113645;28;20091;-76
2023/03/12 05:37:12;;;;;;;0.10;0.10;;;;;;;;;;5112561;28;20020;-75
2023/03/12 05:39:45;;;;;;;0.10;0.10;;;2.50;99.90;;;;;;5107915;28;20109;-76
2023/03/12 05:42:12;;;;;;;0.10;0.10;;;3.00;99.90;;;;;;5104617;28;20015;-76
2023/03/12 05:44:38;;;;;;;0.10;0.10;;;2.50;99.90;;;;;;5106260;28;20502;-77
2023/03/12 05:47:04;;;;;;;0.10;0.10;;;2.40;99.90;;;;;;5106545;28;20066;-76
2023/03/12 05:49:30;;;;;;;0.95;0.95;;;;;;;;;;5105879;28;20020;-76
2023/03/12 05:51:57;;;;;;;0.10;0.10;;;;;;;;;;5105559;28;20019;-76
2023/03/12 05:54:23;;;;;;;0.03;0.03;;;2.60;99.90;;;;;;5105981;28;20379;-76
2023/03/12 05:56:49;;;;;;;0.10;0.10;;;2.60;99.90;;;;;;5105181;28;20023;-76
2023/03/12 05:59:15;;;;;;;0.10;0.10;;;;;;;;;;5104910;28;20041;-76
2023/03/12 06:01:41;;;;;;;0.10;0.10;;;;;;;;;;5104842;28;20103;-75
2023/03/12 06:04:07;;;;;;;0.10;0.10;;;;;;;;;;5091436;28;20045;-76
2023/03/12 06:06:36;;;;;;;0.10;0.10;;;2.60;99.90;;;;;;5115198;28;20588;-77
2023/03/12 06:09:03;;;;;;;0.10;0.10;;;2.30;99.90;;;;;;5108415;28;20556;-75
2023/03/12 06:11:31;;;;;;;0.10;0.10;;;2.60;99.90;;;;;;5109172;28;20027;-76
2023/03/12 06:13:57;;;;;;;0.15;0.15;;;;;;;;;;5113050;28;20015;-76
2023/03/12 06:16:25;;;;;;;0.10;0.10;;;2.70;99.90;;;;;;5114262;28;20087;-76
2023/03/12 06:18:56;;;;;;;0.10;0.10;;;2.60;99.90;;;;;;5107847;28;20522;-76
2023/03/12 06:21:24;;;;;;;0.08;0.08;;;2.70;99.90;;;;;;5106140;28;20019;-76
2023/03/12 06:23:51;;;;;;;0.00;0.00;;;1.50;99.90;;;;;;5104806;28;20019;-76
2023/03/12 06:26:19;;;;;;;0.38;0.38;;;2.70;99.90;;;;;;5086916;28;20027;-76
2023/03/12 06:28:46;;;;;;;0.00;0.00;;;2.60;99.90;;;;;;5104698;28;20020;-76
2023/03/12 06:31:13;;;;;;;0.03;0.03;;;2.80;99.90;;;;;;5085782;28;20027;-76
2023/03/12 06:33:40;;;;;;;0.03;0.03;;;;;;;;;;5103813;28;20036;-76
2023/03/12 06:36:07;;;;;;;0.10;0.10;;;2.80;99.90;;;;;;5104169;28;20384;-76
2023/03/12 06:38:34;;;;;;;0.10;0.10;;;2.90;99.90;;;;;;5104373;28;20020;-76
2023/03/12 06:41:08;;;;;;;0.10;0.10;;;2.90;99.90;;;;;;5104956;28;20193;-75
2023/03/12 06:43:36;;;;;;;0.00;0.00;;;3.00;99.90;;;;;;5106159;28;20027;-76
2023/03/12 06:46:03;;;;;;;0.17;0.17;;;2.70;99.90;;;;;;5106511;28;20053;-76
2023/03/12 06:48:35;;;;;;;0.95;0.95;;;2.90;99.90;;;;;;5107226;28;20028;-75
2023/03/12 06:51:02;;;;;;;0.00;0.00;;;3.00;99.90;;;;;;5104805;28;20300;-76
2023/03/12 06:53:28;;;;;;;0.00;0.00;;;3.10;99.90;;;;;;5104649;28;20115;-76
2023/03/12 06:55:54;;;;;;;0.00;0.00;;;3.20;99.90;;;;;;5102242;28;20031;-76
2023/03/12 06:58:19;;;;;;;0.10;0.10;;;3.10;97.30;;;;;;5102932;28;20032;-77
2023/03/12 07:00:45;;;;;;;0.03;0.03;;;3.10;99.90;;;;;;5101684;28;20015;-76
2023/03/12 07:03:12;;;;;;;0.00;0.00;;;3.20;99.90;;;;;;5103593;28;20024;-76
2023/03/12 07:05:38;;;;;;;0.00;0.00;;;;;;;;;;5103824;28;20212;-78
2023/03/12 07:08:04;;;;;;;0.00;0.00;;;3.30;98.80;;;;;;5107039;28;20514;-76
2023/03/12 07:10:30;;;;;;;0.00;0.00;;;3.40;99.20;;;;;;5124882;28;20069;-75
2023/03/12 07:12:56;;;;;;;0.10;0.10;;;4.10;99.90;;;;;;5103321;28;20130;-76
2023/03/12 07:15:23;;;;;;;0.00;0.00;;;3.00;99.90;;;;;;5102354;28;20020;-75
2023/03/12 07:17:49;;;;;;;0.10;0.10;;;3.80;99.80;;;;;;5084557;28;20251;-76
2023/03/12 07:20:17;;;;;;;0.00;0.00;;;3.70;99.00;;;;;;5103355;28;20364;-75
2023/03/12 07:22:46;;;;;;;0.10;0.10;;;3.60;97.90;;;;;;5103908;28;20031;-75
2023/03/12 07:25:12;;;;;;;0.10;0.10;;;4.10;99.90;;;;;;5103513;28;20043;-75
2023/03/12 07:27:40;;;;;;;0.00;0.00;;;3.70;99.90;;;;;;5102751;28;20132;-76
2023/03/12 07:30:15;;;;;;;0.00;0.00;;;3.70;99.90;;;;;;5106139;28;20046;-76
2023/03/12 07:32:41;;;;;;;0.00;0.00;;;;;;;;;;5086130;28;20066;-76
2023/03/12 07:35:10;;;;;;;0.10;0.10;;;3.80;98.60;;;;;;5084878;28;20458;-75
2023/03/12 07:37:36;;;;;;;0.10;0.10;;;;;;;;;;5101882;28;20227;-75
2023/03/12 07:40:06;;;;;;;0.10;0.10;;;3.80;99.90;;;;;;5102485;28;20024;-75
2023/03/12 07:42:32;;;;;;;0.00;0.00;;;;;;;;;;5102609;28;20051;-75
2023/03/12 07:44:58;;;;;;;0.00;0.00;;;;;;;;;;5084516;28;20501;-75
2023/03/12 07:47:25;;;;;;;0.00;0.00;;;;;;;;;;5105075;28;20031;-75
2023/03/12 07:49:51;;;;;;;0.10;0.10;;;;;;;;;;5102883;28;20211;-75
2023/03/12 07:52:18;;;;;;;0.03;0.03;;;;;;;;;;5103119;28;20293;-76
2023/03/12 07:54:45;;;;;;;0.10;0.10;;;;;;;;;;5086157;28;20110;-75
2023/03/12 07:57:12;;;;;;;0.00;0.00;;;;;;;;;;5103181;28;20020;-76
2023/03/12 07:59:38;;;;;;;0.05;0.05;;;3.90;97.50;;;;;;5085069;28;20016;-75
2023/03/12 08:02:11;;;;;;;0.10;0.10;;;4.00;94.60;;;;;;5104629;28;20027;-76
2023/03/12 08:04:38;;;;;;;0.10;0.10;;;4.00;94.30;;;;;;5090702;28;20035;-76
2023/03/12 08:07:04;;;;;;;0.10;0.10;;;4.20;97.90;;;;;;5123963;28;20085;-76
2023/03/12 08:09:32;;;;;;;0.00;0.00;;;;;;;;;;5123899;28;20144;-76
2023/03/12 08:11:58;;;;;;;0.00;0.00;;;;;;;;;;5125808;28;20043;-75
2023/03/12 08:14:23;;;;;;;0.10;0.10;;;4.60;92.60;;;;;;5125957;28;20110;-76
2023/03/12 08:16:50;;;;;;;0.10;0.10;;;;;;;;;;5118056;28;20093;-77
2023/03/12 08:19:16;;;;;;;0.10;0.10;;;4.90;93.40;;;;;;5092956;28;20413;-76
2023/03/12 08:21:42;;;;;;;0.00;0.00;;;;;;;;;;5110713;28;20236;-77
2023/03/12 08:24:08;;;;;;;0.00;0.00;;;;;;;;;;5110842;28;20103;-76
2023/03/12 08:26:34;;;;;;;0.10;0.10;;;;;;;;;;5110956;28;20265;-76
2023/03/12 08:29:00;;;;;;;0.10;0.10;;;;;;;;;;5112061;28;20023;-75
2023/03/12 08:31:27;;;;;;;0.10;0.10;;;5.50;91.30;;;;;;5094346;28;20024;-75
2023/03/12 08:33:53;;;;;;;0.13;0.13;;;;;;;;;;5111600;28;20019;-75
2023/03/12 08:36:20;;;;;;;0.00;0.00;;;5.60;90.70;;;;;;5113367;28;20028;-76
2023/03/12 08:38:47;;;;;;;0.00;0.00;;;3.40;87.40;;;;;;5116537;28;20024;-76
2023/03/12 08:41:15;;;;;;;0.00;0.00;;;5.70;90.00;;;;;;5118305;28;20024;-76
2023/03/12 08:43:41;;;;;;;0.00;0.00;;;;;;;;;;5115751;28;20369;-76
2023/03/12 08:46:07;;;;;;;0.00;0.00;;;;;;;;;;5111873;28;20534;-76
2023/03/12 08:48:33;;;;;;;0.08;0.08;;;;;;;;;;5098225;28;20031;-76
2023/03/12 08:51:06;;;;;;;0.08;0.08;;;5.90;88.20;;;;;;5113374;28;20342;-76
2023/03/12 08:53:33;;;;;;;0.10;0.10;;;5.90;90.40;;;;;;5114488;28;20114;-76
2023/03/12 08:56:00;;;;;;;0.00;0.00;;;6.30;80.60;;;;;;5113341;28;20027;-75
2023/03/12 08:58:26;;;;;;;0.10;0.10;;;;;;;;;;5089866;28;20055;-76
2023/03/12 09:00:53;;;;;;;0.00;0.00;;;6.40;90.10;;;;;;5087244;28;20292;-76
2023/03/12 09:03:20;;;;;;;0.00;0.00;;;;;;;;;;5108880;28;20019;-76
2023/03/12 09:05:47;;;;;;;0.08;0.08;;;6.40;85.50;;;;;;5113002;28;20048;-76
2023/03/12 09:08:13;;;;;;;0.10;0.10;;;6.40;85.00;;;;;;5094206;28;20307;-75
2023/03/12 09:10:45;;;;;;;0.10;0.10;;;6.20;87.20;;;;;;5114345;28;20023;-75
2023/03/12 09:13:11;;;;;;;0.10;0.10;;;;;;;;;;5114448;28;20020;-76
2023/03/12 09:15:40;;;;;;;0.10;0.10;;;;;;;;;;5109776;28;20036;-76
2023/03/12 09:18:07;;;;;;;0.10;0.10;;;6.00;86.10;;;;;;5087692;28;20092;-76
2023/03/12 09:20:33;;;;;;;0.00;0.00;;;6.00;92.70;;;;;;5105924;28;20024;-75
2023/03/12 09:22:58;;;;;;;0.00;0.00;;;5.90;89.10;;;;;;5090263;28;20030;-75
2023/03/12 09:25:25;;;;;;;0.00;0.00;;;;;;;;;;5106049;28;20246;-76
2023/03/12 09:27:51;;;;;;;0.00;0.00;;;;;;;;;;5084983;28;20046;-76
2023/03/12 09:30:19;;;;;;;0.10;0.10;;;6.50;92.70;;;;;;5105342;28;20023;-76
2023/03/12 09:32:46;;;;;;;0.00;0.00;;;;;;;;;;5086928;28;20024;-76
2023/03/12 09:35:16;;;;;;;0.10;0.10;;;6.80;86.70;;;;;;5106995;28;20096;-76
2023/03/12 09:37:42;;;;;;;0.20;0.20;;;6.80;87.50;;;;;;5055021;28;20028;-76
2023/03/12 09:40:17;;;;;;;0.10;0.10;;;7.20;81.50;;;;;;5104273;28;20380;-76
2023/03/12 09:42:48;;;;;;;0.10;0.10;;;7.10;82.90;;;;;;5104687;28;20041;-76
2023/03/12 09:45:31;;;;;;;0.00;0.00;;;7.30;82.30;;;;;;5104549;28;20023;-75
2023/03/12 09:48:06;;;;;;;0.00;0.00;;;7.00;79.40;;;;;;5069499;28;20035;-76
2023/03/12 09:50:32;;;;;;;0.40;0.40;;;;;;;;;;5105102;28;20751;-75
2023/03/12 09:53:10;;;;;;;0.08;0.08;;;7.40;83.30;;;;;;5105129;28;20020;-76
2023/03/12 09:55:39;;;;;;;0.93;0.93;;;7.50;78.40;;;;;;5106318;28;20019;-75
2023/03/12 09:58:17;;;;;;;0.10;0.10;;;7.50;84.30;;;;;;5105352;28;20725;-76
2023/03/12 10:00:43;;;;;;;0.00;0.00;;;;;;;;;;5105056;28;20688;-76
2023/03/12 10:03:26;;;;;;;0.10;0.10;;;7.60;76.60;;;;;;5105482;28;20016;-76
2023/03/12 10:06:18;;;;;;;0.10;0.10;;;7.90;85.60;;;;;;5097401;28;20347;-76
2023/03/12 10:09:12;;;;;;;0.00;0.00;;;7.70;75.00;;;;;;5103637;28;20054;-75
2023/03/12 10:12:09;;;;;;;0.10;0.10;;;7.70;75.50;;;;;;5100739;28;20024;-75
2023/03/12 10:14:54;;;;;;;0.20;0.20;;;7.60;71.50;;;;;;5104463;28;20016;-75
2023/03/12 10:17:47;;;;;;;0.00;0.00;;;8.10;74.70;;;;;;5105350;28;20088;-76
2023/03/12 10:20:12;;;;;;;0.05;0.05;;;7.70;72.30;;;;;;5104960;28;20267;-76
2023/03/12 10:22:50;;;;;;;0.10;0.10;;;7.90;75.90;;;;;;5103926;28;20042;-76
2023/03/12 10:25:28;;;;;;;0.10;0.10;;;7.90;72.60;;;;;;5106157;28;20031;-76
2023/03/12 10:28:01;;;;;;;0.20;0.20;;;8.10;72.70;;;;;;5101979;28;20039;-75
2023/03/12 10:30:29;;;;;;;0.20;0.20;;;8.00;74.20;;;;;;5109259;28;20020;-76
2023/03/12 10:33:03;;;;;;;0.10;0.10;;;8.30;72.90;;;;;;5087015;28;20074;-76
2023/03/12 10:35:31;;;;;;;;;;;8.30;74.60;;;;;;5104829;28;20070;-76
2023/03/12 10:37:59;;;;;;;0.10;0.10;;;8.40;81.00;;;;;;5084368;28;20344;-76
2023/03/12 10:40:29;;;;;;;0.13;0.13;;;8.60;80.90;;;;;;5103735;28;20018;-75
2023/03/12 10:42:56;;;;;;;0.20;0.20;;;9.20;69.30;;;;;;5104331;28;20035;-76
2023/03/12 10:46:00;;;;;;;0.10;0.10;;;9.40;69.90;;;;;;5084360;28;20081;-75
2023/03/12 10:48:26;;;;;;;0.20;0.20;;;;;;;;;;5087118;28;20027;-75
2023/03/12 10:51:09;;;;;;;0.20;0.20;;;8.70;68.90;;;;;;5084478;28;20332;-76
2023/03/12 10:53:46;;;;;;;0.10;0.10;;;10.00;69.30;;;;;;5103001;28;20315;-75
2023/03/12 10:56:15;;;;;;;0.10;0.10;;;10.10;72.30;;;;;;5102656;28;20036;-75
2023/03/12 10:58:46;;;;;;;0.20;0.20;;;10.60;71.70;;;;;;5105175;28;20028;-76
2023/03/12 11:01:20;;;;;;;0.10;0.10;;;11.30;70.10;;;;;;5103142;28;20016;-76
2023/03/12 11:03:46;;;;;;;0.10;0.10;;;9.40;69.30;;;;;;5100610;28;20118;-77
2023/03/12 11:06:21;;;;;;;0.10;0.10;;;10.00;69.80;;;;;;5102300;28;20678;-75
2023/03/12 11:09:04;;;;;;;0.20;0.20;;;9.90;70.80;;;;;;5101937;28;20513;-76
2023/03/12 11:11:33;;;;;;;0.10;0.10;;;10.10;65.40;;;;;;5101982;28;20023;-76
2023/03/12 11:14:17;;;;;;;0.13;0.13;;;9.90;64.10;;;;;;5102900;28;20059;-76
2023/03/12 11:16:43;;;;;;;0.10;0.10;;;10.30;68.10;;;;;;5104687;28;20368;-76
2023/03/12 11:19:13;;;;;;;0.30;0.30;;;10.10;68.50;;;;;;5100978;28;20427;-76
2023/03/12 11:21:52;;;;;;;2.40;2.30;;;9.90;67.10;;;;;;5103442;28;20204;-75
2023/03/12 11:24:18;;;;;;;0.10;0.10;;;8.70;65.70;;;;;;5084936;28;20034;-75
2023/03/12 11:26:59;;;;;;;0.10;0.10;;;10.40;65.80;;;;;;5102175;28;20486;-76
2023/03/12 11:29:38;;;;;;;1.75;1.65;;;10.60;61.80;;;;;;5105737;28;20015;-76
2023/03/12 11:32:22;;;;;;;0.20;0.20;;;11.30;64.80;;;;;;5101540;28;20020;-75
2023/03/12 11:34:48;;;;;;;0.20;0.20;;;11.20;65.50;;;;;;5101336;28;20015;-76
2023/03/12 11:37:52;;;;;;;0.20;0.20;;;11.10;64.50;;;;;;5102379;28;20059;-76
2023/03/12 11:40:45;;;;;;;0.20;0.20;;;11.40;63.50;;;;;;5101587;28;20221;-76
2023/03/12 11:43:21;;;;;;;0.17;0.17;;;11.60;65.10;;;;;;5101358;28;20035;-76
2023/03/12 11:45:46;;;;;;;0.20;0.20;;;11.80;61.50;;;;;;5098221;28;20300;-76
2023/03/12 11:48:15;;;;;;;0.73;0.73;;;11.60;64.30;;;;;;5098356;28;20674;-76
2023/03/12 11:50:50;;;;;;;0.50;0.50;;;13.00;59.50;;;;;;5098802;28;20100;-77
2023/03/12 11:53:16;;;;;;;0.10;0.10;;;12.50;61.30;;;;;;5098202;28;20024;-76
2023/03/12 11:56:06;;;;;;;0.20;0.20;;;14.60;62.20;;;;;;5097965;28;20019;-76
2023/03/12 11:58:44;;;;;;;0.20;0.20;;;13.10;57.40;;;;;;5100143;28;20072;-76
2023/03/12 12:01:18;;;;;;;0.57;0.57;;;12.20;59.40;;;;;;5099576;28;20026;-78
2023/03/12 12:03:56;;;;;;;0.10;0.10;;;12.60;62.50;;;;;;5100182;28;20506;-76
2023/03/12 12:06:22;;;;;;;0.20;0.20;;;12.20;61.30;;;;;;5098244;28;20066;-77
2023/03/12 12:08:56;;;;;;;0.10;0.10;;;12.50;61.00;;;;;;5099006;28;20628;-76
2023/03/12 12:11:36;;;;;;;0.20;0.20;;;12.60;58.10;;;;;;5101320;28;20373;-78
2023/03/12 12:14:19;;;;;;;0.20;0.20;;;13.20;60.90;;;;;;5101253;28;20016;-80
2023/03/12 12:16:51;;;;;;;0.17;0.17;;;13.40;56.10;;;;;;5081668;28;20024;-89
2023/03/12 12:19:52;;;;;;;0.10;0.10;;;13.30;55.80;;;;;;5099156;28;20027;-77
2023/03/12 12:22:37;;;;;;;0.10;0.10;;;13.20;55.30;;;;;;5015814;28;20528;-79
2023/03/12 12:25:24;;;;;;;0.10;0.10;;;13.60;54.60;;;;;;5016076;28;20033;-77
2023/03/12 12:28:14;;;;;;;0.10;0.10;;;13.80;56.80;;;;;;5015391;28;20091;-77
2023/03/12 12:31:18;;;;;;;0.10;0.10;;;13.80;55.10;;;;;;5015082;28;20606;-76
2023/03/12 12:34:24;;;;;;;0.20;0.20;;;13.30;55.30;;;;;;4986885;28;20284;-76
2023/03/12 12:37:14;;;;;;;0.20;0.20;;;14.00;56.30;;;;;;4957024;28;20050;-76
2023/03/12 12:39:51;;;;;;;0.15;0.15;;;13.40;53.90;;;;;;4957163;28;20038;-78
2023/03/12 12:42:25;;;;;;;0.10;0.10;;;13.50;54.70;;;;;;4957150;28;20047;-80
2023/03/12 12:44:53;;;;;;;0.20;0.20;;;13.40;55.20;;;;;;4940313;28;20407;-81
2023/03/12 12:47:29;;;;;;;0.20;0.20;;;13.80;55.10;;;;;;4956140;28;20683;-77
2023/03/12 12:49:58;;;;;;;0.13;0.13;;;13.80;56.40;;;;;;4956830;28;20257;-80
2023/03/12 12:52:24;;;;;;;0.10;0.10;;;14.20;55.10;;;;;;4956577;28;20894;-77
2023/03/12 12:54:51;;;;;;;0.20;0.20;;;;;;;;;;4956830;28;20047;-79
2023/03/12 12:57:41;;;;;;;1.38;1.38;;;14.10;52.20;;;;;;5008732;28;20365;-79
2023/03/12 13:00:33;;;;;;;0.10;0.10;;;14.10;52.30;;;;;;4998028;28;20040;-77
2023/03/12 13:03:00;;;;;;;0.10;0.10;;;14.00;51.40;;;;;;5016533;28;20637;-77
2023/03/12 13:05:52;;;;;;;0.28;0.28;;;14.10;51.80;;;;;;5001396;28;20029;-78
2023/03/12 13:08:41;;;;;;;0.47;0.47;;;14.00;52.80;;;;;;5019571;28;20342;-80
2023/03/12 13:11:15;;;;;;;0.15;0.15;;;13.50;52.30;;;;;;5018886;28;20021;-77
2023/03/12 13:14:01;;;;;;;2.05;1.95;;;13.50;53.30;;;;;;5102320;28;20027;-81
2023/03/12 13:16:41;;;;;;;0.10;0.10;;;13.00;53.40;;;;;;5102326;28;20016;-77
2023/03/12 13:19:21;;;;;;;0.10;0.10;;;13.30;54.70;;;;;;5101200;28;20243;-77
2023/03/12 13:22:05;;;;;;;0.68;0.68;;;13.60;55.90;;;;;;5101044;28;20258;-77
2023/03/12 13:24:40;;;;;;;0.20;0.20;;;14.10;55.30;;;;;;5101045;28;20030;-79
2023/03/12 13:27:15;;;;;;;0.20;0.20;;;13.90;52.30;;;;;;5100868;28;20575;-76